• Join FlightAware (Why Join?)
  • Login
  • US Flag 
08:16AM EDT


 

Airport Tracker/Info


-or-


 

Live Flight TrackerFlight Track Log ✈ USC110 ✈ 19-Jul-2013 ✈ KLCK - KBKL

Flight Track Log - Related Links

Times and Time Zones

All times are in EDT time to prevent confusion due to time zone crossing. See the USC110 flight status page for this flight to view local times or setup timezone preferences in your user account.

Time Position Orientation Groundspeed Altitude Reporting Facility
EDT Latitude Longitude Course Direction KTS MPH feet Rate Location/Type
09:58PM 39.8203 -82.9217 43° Northeast 101 116 1,000  Level Indianapolis Center
09:59PM 39.8322 -82.9072 43° Northeast 103 119 1,500 780 Climbing Indianapolis Center
10:00PM 39.8553 -82.8739 48° Northeast 122 140 2,300 900 Climbing Indianapolis Center
10:01PM 39.8883 -82.8481 31° Northeast 138 159 3,400 1,080 Climbing Indianapolis Center
10:02PM 39.9194 -82.8286 26° Northeast 127 146 4,500 840 Climbing Indianapolis Center
10:03PM 39.9578 -82.8019 28° Northeast 150 173 5,200 660 Climbing Indianapolis Center
10:04PM 39.9908 -82.7742 33° Northeast 150 173 5,900 660 Climbing Indianapolis Center
10:05PM 40.0344 -82.7456 27° Northeast 153 176 6,700 600 Climbing Indianapolis Center
10:06PM 40.0683 -82.7225 28° Northeast 155 178 7,200 540 Climbing Indianapolis Center
10:07PM 40.1078 -82.6950 28° Northeast 158 182 7,800 540 Climbing Indianapolis Center
10:08PM 40.1458 -82.6692 27° Northeast 154 177 8,400 540 Climbing Indianapolis Center
10:09PM 40.1853 -82.6428 27° Northeast 157 181 8,900 240 Climbing Indianapolis Center
10:10PM 40.2264 -82.6111 30° Northeast 171 197 9,000  Climbing Indianapolis Center
10:11PM 40.2769 -82.5772 27° Northeast 173 199 9,000  Level Indianapolis Center
10:12PM 40.3194 -82.5472 28° Northeast 173 199 9,000  Level Indianapolis Center
10:13PM 40.3625 -82.5200 26° Northeast 171 197 9,000  Level Indianapolis Center
10:14PM 40.4042 -82.4883 30° Northeast 171 197 9,000  Level Indianapolis Center
10:15PM 40.4472 -82.4600 27° Northeast 171 197 9,000  Level Indianapolis Center
10:16PM 40.4894 -82.4303 28° Northeast 170 196 9,000  Level Indianapolis Center
10:17PM 40.5333 -82.3975 30° Northeast 175 201 9,000  Level Indianapolis Center
10:18PM 40.5758 -82.3672 28° Northeast 174 200 9,000  Level Indianapolis Center
10:19PM 40.6194 -82.3347 29° Northeast 176 203 9,000  Level Indianapolis Center
10:20PM 40.6625 -82.3050 28° Northeast 174 200 9,000  Level Indianapolis Center
10:21PM 40.7067 -82.2728 29° Northeast 177 204 9,000  Level Indianapolis Center
10:22PM 40.7492 -82.2428 28° Northeast 175 201 9,000 -60 Level Indianapolis Center
10:23PM 40.7933 -82.2100 29° Northeast 177 204 8,900 -60 Descending Indianapolis Center
10:24PM 40.8361 -82.1778 30° Northeast 177 204 8,900  Level Indianapolis Center
10:25PM 40.8806 -82.1469 28° Northeast 177 204 8,900  Level Indianapolis Center
10:26PM 40.9072 -82.1297 26° Northeast 175 201 8,900 60 Level Cleveland Center
10:27PM 40.9431 -82.1006 32° Northeast 167 192 9,000 -300 Climbing Cleveland Center
10:28PM 41.0064 -82.0386 36° Northeast 193 222 8,200 -600 Descending Cleveland Center